Terminal Aerodrome Forecast
Issued by NWS Raleigh/Durham, NC

Home | Current Version | Previous Version | Text Only | Print | Product List | Glossary On
Versions: 1 2 3 4 5 6 7 8 9 10 11 12 13 14 15 16 17 18 19 20 21 22 23 24 25 26 27 28
000
FTUS42 KRAH 220527
TAFRDU
TAF
KRDU 220527Z 2206/2306 VRB03KT P6SM VCSH OVC035
      TEMPO 2207/2211 3SM -SHRA OVC020
     FM221200 29003KT P6SM BKN040
     FM221500 33011G19KT P6SM FEW200
     FM222300 VRB04KT P6SM BKN250=

USA.gov is the U.S. government's official web portal to all federal, state and local government web resources and services.